createdAt,value
2022-10-15T00:01:02.617Z,10.8
2022-10-15T00:03:06.116Z,10.8
2022-10-15T00:05:09.697Z,10.9
2022-10-15T00:07:13.264Z,11
2022-10-15T00:09:16.809Z,11.2
2022-10-15T00:11:20.370Z,10.8
2022-10-15T00:13:23.892Z,11.2
2022-10-15T00:15:30.528Z,10.7
2022-10-15T00:17:34.098Z,11.1
2022-10-15T00:19:37.660Z,10.6
2022-10-15T00:21:41.203Z,10.9
2022-10-15T00:23:44.745Z,10.6
2022-10-15T00:25:48.303Z,10.8
2022-10-15T00:27:51.868Z,11
2022-10-15T00:29:58.486Z,10.6
2022-10-15T00:32:02.056Z,10.6
2022-10-15T00:34:05.607Z,11.1
2022-10-15T00:36:09.177Z,10.7
2022-10-15T00:42:20.169Z,10.6
2022-10-15T00:46:30.054Z,11.1
2022-10-15T00:49:36.930Z,10.5
2022-10-15T00:51:40.486Z,10.6
2022-10-15T00:53:44.057Z,10.5
2022-10-15T00:55:47.629Z,10.5
2022-10-15T00:57:54.247Z,10.8
2022-10-15T00:59:57.789Z,11
2022-10-15T01:02:01.349Z,10.6
2022-10-15T01:04:04.903Z,10.6
2022-10-15T01:06:08.471Z,10.9
2022-10-15T01:08:12.026Z,10.6
2022-10-15T01:10:15.628Z,10.7
2022-10-15T01:12:22.482Z,10.9
2022-10-15T01:16:29.298Z,11
2022-10-15T01:18:32.839Z,10.9
2022-10-15T01:22:41.472Z,10.8
2022-10-15T01:24:45.021Z,11.3
2022-10-15T01:26:51.661Z,11.1
2022-10-15T01:28:55.296Z,11.2
2022-10-15T01:30:58.790Z,11.3
2022-10-15T01:33:02.380Z,10.9
2022-10-15T01:35:05.908Z,10.8
2022-10-15T01:37:09.489Z,10.8
2022-10-15T01:39:13.030Z,11.4
2022-10-15T01:41:19.665Z,11
2022-10-15T01:45:26.795Z,10.8
2022-10-15T01:46:30.110Z,11.1
2022-10-15T01:50:37.215Z,11
2022-10-15T01:52:40.751Z,10.9
2022-10-15T01:54:47.409Z,11.2
2022-10-15T01:56:50.979Z,10.8
2022-10-15T01:58:54.555Z,11.1
2022-10-15T02:00:58.166Z,11.1
2022-10-15T02:03:01.683Z,11.2
2022-10-15T02:05:05.229Z,10.9
2022-10-15T02:07:08.761Z,11
2022-10-15T02:11:18.994Z,11.3
2022-10-15T02:13:22.546Z,11
2022-10-15T02:15:26.088Z,11
2022-10-15T02:17:29.676Z,11.4
2022-10-15T02:19:33.196Z,11
2022-10-15T02:21:36.764Z,11.3
2022-10-15T02:23:43.406Z,11.3
2022-10-15T02:25:46.933Z,10.9
2022-10-15T02:27:50.488Z,11.3
2022-10-15T02:29:54.019Z,11.5
2022-10-15T02:34:01.143Z,11.1
2022-10-15T02:36:04.679Z,11
2022-10-15T02:38:11.329Z,11.5
2022-10-15T02:40:14.846Z,11.1
2022-10-15T02:42:18.411Z,11
2022-10-15T02:43:21.716Z,11.1
2022-10-15T02:45:25.265Z,11.1
2022-10-15T02:47:28.810Z,11.1
2022-10-15T02:49:32.332Z,11.2
2022-10-15T02:51:38.939Z,11
2022-10-15T02:53:42.487Z,11.3
2022-10-15T02:55:46.015Z,11.3
2022-10-15T02:57:49.581Z,11.3
2022-10-15T02:59:53.158Z,10.7
2022-10-15T03:01:56.676Z,10.7
2022-10-15T03:04:00.239Z,11.2
2022-10-15T03:06:06.881Z,10.6
2022-10-15T03:08:10.401Z,10.7
2022-10-15T03:10:13.973Z,10.9
2022-10-15T03:12:17.524Z,11.2
2022-10-15T03:14:21.151Z,10.7
2022-10-15T03:16:24.627Z,10.7
2022-10-15T03:18:28.213Z,11.1
2022-10-15T03:20:34.812Z,11.1
2022-10-15T03:22:38.378Z,10.8
2022-10-15T03:24:41.933Z,11.2
2022-10-15T03:26:45.528Z,11
2022-10-15T03:28:49.064Z,10.7
2022-10-15T03:30:52.568Z,11.2
2022-10-15T03:32:56.132Z,10.9
2022-10-15T03:35:02.796Z,10.9
2022-10-15T03:37:06.351Z,11.1
2022-10-15T03:39:09.886Z,10.8
2022-10-15T03:41:32.087Z,10.6
2022-10-15T03:43:37.558Z,10.7
2022-10-15T03:45:39.211Z,11
2022-10-15T03:47:45.840Z,10.8
2022-10-15T03:51:52.944Z,11.2
2022-10-15T03:53:56.494Z,10.9
2022-10-15T03:56:00.034Z,10.8
2022-10-15T03:58:03.611Z,11.2
2022-10-15T04:00:07.181Z,11.1
2022-10-15T04:02:13.793Z,10.7
2022-10-15T04:04:17.343Z,10.7
2022-10-15T04:06:20.892Z,11.2
2022-10-15T04:08:24.422Z,10.7
2022-10-15T04:10:27.955Z,11
2022-10-15T04:12:31.539Z,11.2
2022-10-15T04:14:35.095Z,11.3
2022-10-15T04:18:45.224Z,10.8
2022-10-15T04:20:48.762Z,11.1
2022-10-15T04:24:55.888Z,11.4
2022-10-15T04:26:59.440Z,11.1
2022-10-15T04:31:09.641Z,11
2022-10-15T04:33:13.152Z,10.7
2022-10-15T04:35:16.808Z,11.1
2022-10-15T04:38:23.612Z,11
2022-10-15T04:40:27.152Z,10.9
2022-10-15T04:42:30.709Z,11.2
2022-10-15T04:44:37.347Z,10.7
2022-10-15T04:48:44.512Z,11.1
2022-10-15T04:50:48.042Z,10.9
2022-10-15T04:52:51.567Z,11
2022-10-15T04:54:55.145Z,10.9
2022-10-15T04:56:58.689Z,10.8
2022-10-15T05:01:08.836Z,10.6
2022-10-15T05:03:12.421Z,10.5
2022-10-15T05:05:15.996Z,10.9
2022-10-15T05:11:26.629Z,10.6
2022-10-15T05:15:36.809Z,10.8
2022-10-15T05:17:40.381Z,10.9
2022-10-15T05:19:43.934Z,10.7
2022-10-15T05:23:51.040Z,10.7
2022-10-15T05:25:54.605Z,10.9
2022-10-15T05:28:01.234Z,10.5
2022-10-15T05:30:04.787Z,10.8
2022-10-15T05:32:08.382Z,10.6
2022-10-15T05:33:11.632Z,10.9
2022-10-15T05:35:15.201Z,10.9
2022-10-15T05:37:18.755Z,11.1
2022-10-15T05:39:22.355Z,11.1
2022-10-15T05:41:28.975Z,11.1
2022-10-15T05:43:35.052Z,11.2
2022-10-15T05:45:36.091Z,11
2022-10-15T05:47:39.635Z,10.8
2022-10-15T05:49:43.198Z,10.8
2022-10-15T05:51:46.802Z,10.9
2022-10-15T05:55:56.910Z,11.2
2022-10-15T05:58:00.483Z,11
2022-10-15T06:00:04.026Z,11.5
2022-10-15T06:02:07.611Z,11.2
2022-10-15T06:04:11.135Z,11.2
2022-10-15T06:06:14.656Z,11.2
2022-10-15T06:08:18.232Z,11.2
2022-10-15T06:10:24.849Z,11.2
2022-10-15T06:12:28.372Z,11.2
2022-10-15T06:14:31.919Z,11.2
2022-10-15T06:16:35.606Z,11.2
2022-10-15T06:18:39.073Z,11.2
2022-10-15T06:20:42.574Z,11.2
2022-10-15T06:22:46.121Z,11.3
2022-10-15T06:24:52.742Z,11.3
2022-10-15T06:26:56.273Z,11.3
2022-10-15T06:28:59.880Z,11.3
2022-10-15T06:32:06.708Z,11.3
2022-10-15T06:34:10.219Z,11.4
2022-10-15T06:36:13.869Z,11.4
2022-10-15T06:38:20.392Z,11.4
2022-10-15T06:40:23.945Z,11.4
2022-10-15T06:42:27.491Z,11.5
2022-10-15T06:44:31.060Z,11.5
2022-10-15T06:46:34.589Z,11.5
2022-10-15T06:48:38.156Z,11.6
2022-10-15T06:50:41.696Z,11.6
2022-10-15T06:52:48.393Z,11.7
2022-10-15T06:54:51.869Z,11.8
2022-10-15T06:56:55.399Z,12
2022-10-15T06:58:58.960Z,12.1
2022-10-15T07:01:02.521Z,12.2
2022-10-15T07:03:06.060Z,12.3
2022-10-15T07:05:09.601Z,12.3
2022-10-15T07:07:16.214Z,12.3
2022-10-15T07:09:19.731Z,12.3
2022-10-15T07:11:23.296Z,12.3
2022-10-15T07:13:26.860Z,12.4
2022-10-15T07:15:30.371Z,12.3
2022-10-15T07:17:35.479Z,12.3
2022-10-15T07:19:38.963Z,12.3
2022-10-15T07:21:45.580Z,12.3
2022-10-15T07:23:49.249Z,12.4
2022-10-15T07:25:52.634Z,12.4
2022-10-15T07:28:16.600Z,12.4
2022-10-15T07:30:20.017Z,12.4
2022-10-15T07:32:23.844Z,12.4
2022-10-15T07:34:30.162Z,12.5
2022-10-15T07:36:33.676Z,12.5
2022-10-15T07:38:37.230Z,12.5
2022-10-15T07:40:40.744Z,12.5
2022-10-15T07:42:44.267Z,12.5
2022-10-15T07:44:47.769Z,12.6
2022-10-15T07:46:51.304Z,12.6
2022-10-15T07:48:57.927Z,12.6
2022-10-15T07:51:01.606Z,12.6
2022-10-15T07:53:04.992Z,12.6
2022-10-15T07:55:08.488Z,12.7
2022-10-15T07:57:12.041Z,12.7
2022-10-15T07:59:15.572Z,12.7
2022-10-15T08:01:19.098Z,12.8
2022-10-15T08:03:25.707Z,12.8
2022-10-15T08:05:29.233Z,12.8
2022-10-15T08:07:32.723Z,12.9
2022-10-15T08:09:36.388Z,12.9
2022-10-15T08:13:43.323Z,12.9
2022-10-15T08:15:46.847Z,12.9
2022-10-15T08:17:53.451Z,12.9
2022-10-15T08:19:56.999Z,12.9
2022-10-15T08:22:00.499Z,13
2022-10-15T08:23:03.775Z,13
2022-10-15T08:25:07.316Z,13
2022-10-15T08:27:10.835Z,13.1
2022-10-15T08:29:14.384Z,13.1
2022-10-15T08:31:20.937Z,13.1
2022-10-15T08:33:24.440Z,13.1
2022-10-15T08:35:27.954Z,13.1
2022-10-15T08:37:31.466Z,13.1
2022-10-15T08:41:38.477Z,13.1
2022-10-15T08:43:41.967Z,13.1
2022-10-15T08:45:48.598Z,13.2
2022-10-15T08:47:52.114Z,13.2
2022-10-15T08:51:59.088Z,13.5
2022-10-15T08:54:02.646Z,13.7
2022-10-15T08:56:06.174Z,14.1
2022-10-15T08:58:09.653Z,14.5
2022-10-15T09:00:16.230Z,14.8
2022-10-15T09:04:23.278Z,15.1
2022-10-15T09:06:26.747Z,15.2
2022-10-15T09:12:37.209Z,15.3
2022-10-15T09:16:47.308Z,14.9
2022-10-15T09:18:50.760Z,14.6
2022-10-15T09:19:54.059Z,14.8
2022-10-15T09:21:57.547Z,14.9
2022-10-15T09:24:01.020Z,14.8
2022-10-15T09:26:04.488Z,14.7
2022-10-15T09:32:18.041Z,14.6
2022-10-15T09:34:21.551Z,14.7
2022-10-15T09:38:28.482Z,14.7
2022-10-15T09:40:31.958Z,14.8
2022-10-15T09:42:38.491Z,15.6
2022-10-15T09:44:41.967Z,15.5
2022-10-15T09:50:52.380Z,15.5
2022-10-15T09:59:09.836Z,15.7
2022-10-15T10:01:12.740Z,15.7
2022-10-15T10:03:16.205Z,16
2022-10-15T10:05:19.629Z,16
2022-10-15T10:07:23.087Z,15.8
2022-10-15T10:09:26.535Z,15.7
2022-10-15T10:11:33.074Z,15.4
2022-10-15T10:13:36.524Z,15.4
2022-10-15T10:15:39.964Z,15.4
2022-10-15T10:16:43.228Z,15.4
2022-10-15T10:18:46.668Z,15.4
2022-10-15T10:20:50.119Z,15.6
2022-10-15T10:22:53.552Z,15.6
2022-10-15T10:25:00.090Z,15.3
2022-10-15T10:29:29.256Z,15.2
2022-10-15T10:31:10.423Z,15.2
2022-10-15T10:33:13.871Z,15.1
2022-10-15T10:35:17.286Z,15.1
2022-10-15T10:37:20.814Z,15
2022-10-15T10:39:27.250Z,15
2022-10-15T10:41:30.695Z,15
2022-10-15T10:43:38.977Z,15.1
2022-10-15T10:45:37.637Z,15
2022-10-15T10:47:41.068Z,15
2022-10-15T10:49:44.497Z,15
2022-10-15T10:51:47.966Z,15
2022-10-15T10:53:54.490Z,15
2022-10-15T10:55:57.968Z,14.9
2022-10-15T10:58:01.414Z,14.9
2022-10-15T11:00:04.902Z,15
2022-10-15T11:02:08.310Z,14.9
2022-10-15T11:04:14.113Z,14.9
2022-10-15T11:06:15.261Z,14.8
2022-10-15T11:08:21.809Z,14.8
2022-10-15T11:10:25.268Z,14.7
2022-10-15T11:12:28.764Z,14.8
2022-10-15T11:14:53.037Z,14.8
2022-10-15T11:16:56.537Z,14.8
2022-10-15T11:21:07.177Z,14.7
2022-10-15T11:23:10.006Z,14.7
2022-10-15T11:25:13.488Z,14.7
2022-10-15T11:27:16.962Z,14.8
2022-10-15T11:29:20.417Z,14.7
2022-10-15T11:31:23.970Z,14.7
2022-10-15T11:33:27.347Z,14.7
2022-10-15T11:35:51.697Z,14.6
2022-10-15T11:37:37.412Z,14.7
2022-10-15T11:39:41.018Z,14.7
2022-10-15T11:41:44.350Z,14.7
2022-10-15T11:43:47.812Z,14.8
2022-10-15T11:45:51.288Z,14.7
2022-10-15T11:47:54.764Z,14.8
2022-10-15T11:50:01.327Z,14.8
2022-10-15T11:52:04.843Z,14.9
2022-10-15T11:54:08.315Z,14.9
2022-10-15T11:56:11.796Z,14.8
2022-10-15T12:02:22.482Z,14.9
2022-10-15T12:04:31.745Z,14.8
2022-10-15T12:09:38.991Z,14.9
2022-10-15T12:11:42.504Z,14.9
2022-10-15T12:13:45.929Z,15
2022-10-15T12:15:49.413Z,15
2022-10-15T12:17:55.952Z,15
2022-10-15T12:19:59.435Z,15
2022-10-15T12:22:02.883Z,15
2022-10-15T12:24:06.377Z,15
2022-10-15T12:26:09.865Z,15.1
2022-10-15T12:28:14.080Z,15.1
2022-10-15T12:30:17.550Z,15.1
2022-10-15T12:32:24.101Z,15.1
2022-10-15T12:34:27.616Z,15.1
2022-10-15T12:40:37.981Z,15.1
2022-10-15T12:42:41.421Z,15.2
2022-10-15T12:46:51.476Z,15.2
2022-10-15T12:50:58.420Z,15.3
2022-10-15T12:53:01.885Z,15.3
2022-10-15T12:55:05.352Z,15.3
2022-10-15T12:57:08.840Z,15.4
2022-10-15T12:59:12.310Z,15.4
2022-10-15T13:01:18.977Z,15.3
2022-10-15T13:03:22.328Z,15.4
2022-10-15T13:05:25.802Z,15.4
2022-10-15T13:06:29.096Z,15.4
2022-10-15T13:08:32.577Z,15.4
2022-10-15T13:10:36.021Z,15.5
2022-10-15T13:14:47.563Z,15.5
2022-10-15T13:18:54.516Z,15.6
2022-10-15T13:20:57.996Z,15.7
2022-10-15T13:23:06.954Z,15.7
2022-10-15T13:25:04.880Z,15.7
2022-10-15T13:27:08.360Z,15.7
2022-10-15T13:29:14.901Z,15.9
2022-10-15T13:31:18.343Z,16
2022-10-15T13:33:21.816Z,16.1
2022-10-15T13:35:25.274Z,16.1
2022-10-15T13:37:28.739Z,16
2022-10-15T13:41:35.648Z,16
2022-10-15T13:43:42.195Z,16.1
2022-10-15T13:45:45.633Z,16.1
2022-10-15T13:47:49.078Z,16
2022-10-15T13:49:52.525Z,16
2022-10-15T13:51:55.997Z,16
2022-10-15T13:53:59.447Z,16
2022-10-15T13:56:02.911Z,16
2022-10-15T13:58:09.424Z,15.9
2022-10-15T14:00:12.884Z,16
2022-10-15T14:02:16.322Z,16
2022-10-15T14:03:19.614Z,16
2022-10-15T14:05:23.057Z,16
2022-10-15T14:07:26.867Z,16.1
2022-10-15T14:09:29.958Z,16.2
2022-10-15T14:11:36.472Z,16.1
2022-10-15T14:15:43.353Z,16.3
2022-10-15T14:17:46.793Z,16.3
2022-10-15T14:20:02.204Z,16.3
2022-10-15T14:21:53.684Z,16.3
2022-10-15T14:23:57.107Z,16.3
2022-10-15T14:32:13.957Z,16.2
2022-10-15T14:34:17.427Z,16.2
2022-10-15T14:38:24.267Z,16.2
2022-10-15T14:40:30.823Z,16.3
2022-10-15T14:42:34.256Z,16.3
2022-10-15T14:44:37.684Z,16.3
2022-10-15T14:46:41.115Z,16.3
2022-10-15T14:48:44.538Z,16.3
2022-10-15T14:50:47.998Z,16.2
2022-10-15T14:52:51.396Z,16.2
2022-10-15T14:54:57.950Z,16.3
2022-10-15T14:57:01.383Z,16.3
2022-10-15T14:59:05.903Z,16.3
2022-10-15T15:01:28.997Z,16.2
2022-10-15T15:03:32.524Z,16.3
2022-10-15T15:05:35.891Z,16.2
2022-10-15T15:07:42.391Z,16.2
2022-10-15T15:09:45.808Z,16.2
2022-10-15T15:11:49.277Z,16.2
2022-10-15T15:13:52.717Z,16.2
2022-10-15T15:17:59.577Z,16.2
2022-10-15T15:24:12.993Z,16.2
2022-10-15T15:26:16.430Z,16.1
2022-10-15T15:32:27.085Z,16
2022-10-15T15:34:30.134Z,16
2022-10-15T15:40:43.473Z,15.8
2022-10-15T15:42:46.902Z,15.8
2022-10-15T15:44:50.239Z,15.7
2022-10-15T15:46:53.688Z,15.7
2022-10-15T15:48:57.147Z,15.6
2022-10-15T15:51:03.662Z,15.5
2022-10-15T15:53:07.105Z,15.5
2022-10-15T15:55:10.555Z,15.4
2022-10-15T15:56:13.840Z,15.3
2022-10-15T15:58:17.283Z,15.3
2022-10-15T16:00:20.716Z,15.3
2022-10-15T16:02:24.166Z,15.2
2022-10-15T16:04:30.667Z,15.1
2022-10-15T16:06:34.098Z,15.1
2022-10-15T16:08:37.579Z,15
2022-10-15T16:10:40.988Z,15
2022-10-15T16:12:44.423Z,14.9
2022-10-15T16:14:47.915Z,14.9
2022-10-15T16:16:51.328Z,14.8
2022-10-15T16:18:57.847Z,14.8
2022-10-15T16:23:04.778Z,14.7
2022-10-15T16:25:08.231Z,14.7
2022-10-15T16:27:11.695Z,14.6
2022-10-15T16:29:15.133Z,14.6
2022-10-15T16:31:18.608Z,14.4
2022-10-15T16:33:25.155Z,14.3
2022-10-15T16:35:28.657Z,14.3
2022-10-15T16:37:32.104Z,14.2
2022-10-15T16:39:35.597Z,14.1
2022-10-15T16:41:39.052Z,14.1
2022-10-15T16:43:42.525Z,14.1
2022-10-15T16:45:46.007Z,14
2022-10-15T16:47:52.607Z,13.8
2022-10-15T16:49:56.081Z,13.8
2022-10-15T16:51:59.520Z,13.7
2022-10-15T16:53:02.826Z,13.7
2022-10-15T16:55:06.330Z,13.7
2022-10-15T16:57:09.798Z,13.6
2022-10-15T16:59:13.285Z,13.5
2022-10-15T17:01:19.864Z,13.6
2022-10-15T17:03:23.307Z,13.2
2022-10-15T17:05:26.813Z,13.4
2022-10-15T17:07:30.305Z,13.3
2022-10-15T17:09:33.794Z,13.2
2022-10-15T17:11:37.281Z,13.3
2022-10-15T17:13:40.744Z,13.3
2022-10-15T17:15:47.292Z,13.3
2022-10-15T17:17:50.789Z,13.1
2022-10-15T17:19:54.289Z,13.2
2022-10-15T17:21:57.802Z,13.4
2022-10-15T17:24:01.258Z,13.2
2022-10-15T17:26:04.732Z,13.1
2022-10-15T17:28:11.370Z,13.5
2022-10-15T17:30:14.780Z,13.2
2022-10-15T17:32:18.290Z,13.1
2022-10-15T17:34:21.796Z,13.1
2022-10-15T17:36:25.275Z,13.4
2022-10-15T17:38:28.754Z,13.4
2022-10-15T17:40:32.311Z,12.9
2022-10-15T17:42:35.761Z,12.8
2022-10-15T17:44:42.322Z,12.9
2022-10-15T17:46:46.012Z,13.1
2022-10-15T17:48:49.296Z,13.2
2022-10-15T17:49:52.617Z,12.7
2022-10-15T17:51:56.044Z,12.7
2022-10-15T17:53:59.518Z,13
2022-10-15T17:58:09.987Z,12.9
2022-10-15T18:00:13.501Z,13.1
2022-10-15T18:02:17.038Z,13.1
2022-10-15T18:04:20.475Z,13.2
2022-10-15T18:06:23.971Z,12.9
2022-10-15T18:08:27.463Z,12.7
2022-10-15T18:10:30.921Z,12.6
2022-10-15T18:12:37.533Z,13.1
2022-10-15T18:14:41.025Z,12.9
2022-10-15T18:18:48.036Z,12.6
2022-10-15T18:20:51.536Z,13
2022-10-15T18:22:55.037Z,12.8
2022-10-15T18:24:58.530Z,12.9
2022-10-15T18:27:05.143Z,12.4
2022-10-15T18:29:08.601Z,12.7
2022-10-15T18:33:15.626Z,12.7
2022-10-15T18:39:26.223Z,12.7
2022-10-15T18:43:36.247Z,12.8
2022-10-15T18:45:39.750Z,12.6
2022-10-15T18:48:01.814Z,12.4
2022-10-15T18:50:05.324Z,12.4
2022-10-15T18:52:21.711Z,12.4
2022-10-15T18:54:15.405Z,12.3
2022-10-15T18:56:18.925Z,12.8
2022-10-15T18:58:22.433Z,12.4
2022-10-15T19:00:25.932Z,12.2
2022-10-15T19:02:29.456Z,12.2
2022-10-15T19:04:32.941Z,12.5
2022-10-15T19:06:36.447Z,12.6
2022-10-15T19:10:48.083Z,12.4
2022-10-15T19:12:51.611Z,12.4
2022-10-15T19:14:55.146Z,12.4
2022-10-15T19:16:58.663Z,12.8
2022-10-15T19:19:02.162Z,12.8
2022-10-15T19:21:05.722Z,12.9
2022-10-15T19:23:12.283Z,12.8
2022-10-15T19:25:15.796Z,12.5
2022-10-15T19:27:19.321Z,12.5
2022-10-15T19:29:22.836Z,12.7
2022-10-15T19:31:26.373Z,12.5
2022-10-15T19:33:29.893Z,12.4
2022-10-15T19:35:33.393Z,12.5
2022-10-15T19:37:39.993Z,12.8
2022-10-15T19:39:43.488Z,13
2022-10-15T19:41:47.031Z,12.9
2022-10-15T19:42:50.331Z,12.7
2022-10-15T19:44:53.838Z,12.8
2022-10-15T19:46:57.336Z,13
2022-10-15T19:49:00.893Z,13
2022-10-15T19:51:10.024Z,12.9
2022-10-15T19:55:14.509Z,13
2022-10-15T19:57:18.023Z,12.8
2022-10-15T19:59:21.542Z,12.8
2022-10-15T20:01:25.158Z,12.8
2022-10-15T20:03:28.602Z,13
2022-10-15T20:05:35.186Z,12.7
2022-10-15T20:11:45.736Z,12.8
2022-10-15T20:13:49.208Z,12.8
2022-10-15T20:15:52.765Z,12.7
2022-10-15T20:17:56.249Z,12.7
2022-10-15T20:20:02.884Z,12.8
2022-10-15T20:22:06.380Z,12.7
2022-10-15T20:24:09.862Z,12.9
2022-10-15T20:26:13.345Z,12.6
2022-10-15T20:28:16.888Z,12.7
2022-10-15T20:30:20.387Z,12.7
2022-10-15T20:38:37.487Z,12.9
2022-10-15T20:41:44.279Z,12.9
2022-10-15T20:43:47.820Z,12.8
2022-10-15T20:45:51.331Z,13.1
2022-10-15T20:47:57.913Z,12.9
2022-10-15T20:50:01.433Z,13.1
2022-10-15T20:52:04.958Z,12.8
2022-10-15T20:54:08.422Z,13
2022-10-15T20:56:11.940Z,12.9
2022-10-15T21:02:25.742Z,13
2022-10-15T21:04:29.026Z,12.9
2022-10-15T21:06:32.506Z,13.1
2022-10-15T21:08:36.025Z,13.2
2022-10-15T21:10:39.524Z,13.2
2022-10-15T21:12:43.065Z,13
2022-10-15T21:14:46.549Z,13.1
2022-10-15T21:16:53.166Z,13.1
2022-10-15T21:18:56.673Z,13
2022-10-15T21:21:00.164Z,13
2022-10-15T21:23:03.662Z,13.1
2022-10-15T21:25:07.147Z,13.2
2022-10-15T21:27:10.666Z,13
2022-10-15T21:29:14.228Z,13.2
2022-10-15T21:33:24.316Z,13.2
2022-10-15T21:35:27.844Z,13.4
2022-10-15T21:36:31.146Z,13.4
2022-10-15T21:38:34.646Z,13.4
2022-10-15T21:40:38.177Z,13.2
2022-10-15T21:42:41.681Z,13.5
2022-10-15T21:44:48.277Z,13.5
2022-10-15T21:46:51.803Z,13.4
2022-10-15T21:48:55.310Z,13.2
2022-10-15T21:55:05.860Z,13.2
2022-10-15T21:57:09.372Z,13
2022-10-15T21:59:15.962Z,13
2022-10-15T22:01:19.793Z,13.1
2022-10-15T22:03:22.993Z,13
2022-10-15T22:05:26.497Z,13
2022-10-15T22:07:37.238Z,12.7
2022-10-15T22:09:33.524Z,12.8
2022-10-15T22:11:36.981Z,12.7
2022-10-15T22:13:43.604Z,12.8
2022-10-15T22:15:47.108Z,12.9
2022-10-15T22:17:50.657Z,12.6
2022-10-15T22:19:54.224Z,12.6
2022-10-15T22:21:57.673Z,12.7
2022-10-15T22:24:01.180Z,12.9
2022-10-15T22:34:36.738Z,13
2022-10-15T22:36:40.249Z,13
2022-10-15T22:38:43.789Z,13
2022-10-15T22:40:50.336Z,13.2
2022-10-15T22:42:53.864Z,13
2022-10-15T22:44:57.359Z,13
2022-10-15T22:47:00.875Z,13
2022-10-15T22:49:04.419Z,13.1
2022-10-15T22:51:07.947Z,13.1
2022-10-15T22:55:18.012Z,13
2022-10-15T22:57:21.551Z,13.1
2022-10-15T22:59:25.052Z,13.1
2022-10-15T23:01:28.601Z,13
2022-10-15T23:03:32.060Z,13.1
2022-10-15T23:05:35.588Z,12.9
2022-10-15T23:07:39.092Z,13
2022-10-15T23:09:45.669Z,13
2022-10-15T23:11:49.199Z,13
2022-10-15T23:13:52.716Z,12.9
2022-10-15T23:15:56.196Z,12.8
2022-10-15T23:17:59.703Z,13
2022-10-15T23:20:03.199Z,12.8
2022-10-15T23:22:06.711Z,12.9
2022-10-15T23:24:13.298Z,12.9
2022-10-15T23:28:20.384Z,12.8
2022-10-15T23:29:23.651Z,13
2022-10-15T23:31:27.141Z,13
2022-10-15T23:33:30.649Z,12.8
2022-10-15T23:35:34.167Z,12.9
2022-10-15T23:37:40.795Z,12.7
2022-10-15T23:39:44.307Z,12.9
2022-10-15T23:41:47.825Z,12.9
2022-10-15T23:43:51.347Z,12.7
2022-10-15T23:47:58.386Z,12.7
2022-10-15T23:50:01.939Z,12.7
2022-10-15T23:52:08.536Z,12.6
2022-10-15T23:54:12.055Z,12.6
2022-10-15T23:56:15.574Z,12.6
